Time;durP1;ratioP1;P1;durP2;ratioP2;P2;SDS_P1;SDS_P2;PMS_P1;PMS_P2;Temp;Humidity;BMP_temperature;BMP_pressure;BME280_temperature;BME280_humidity;BME280_pressure;Samples;Min_cycle;Max_cycle;Signal;HPM_P1;HPM_P2
2022/06/24 00:02:12;;;;;;;5.70;2.97;;;21.60;88.00;;;;;;5000472;28;20055;-73
2022/06/24 00:04:49;;;;;;;4.95;2.90;;;21.60;88.50;;;;;;4967591;28;20045;-73
2022/06/24 00:07:16;;;;;;;4.38;3.08;;;21.60;86.40;;;;;;4998827;28;20049;-72
2022/06/24 00:09:42;;;;;;;4.13;2.95;;;21.50;87.70;;;;;;4983200;28;20057;-73
2022/06/24 00:12:11;;;;;;;6.18;3.05;;;21.50;89.20;;;;;;5000671;28;20057;-73
2022/06/24 00:14:38;;;;;;;4.50;3.10;;;21.50;91.10;;;;;;4997519;28;20052;-73
2022/06/24 00:17:09;;;;;;;3.97;2.53;;;21.40;91.30;;;;;;4999788;28;20077;-73
2022/06/24 00:19:52;;;;;;;3.60;2.92;;;21.40;92.50;;;;;;4983724;28;20033;-73
2022/06/24 00:22:19;;;;;;;4.57;2.90;;;21.30;93.30;;;;;;5001554;28;20073;-73
2022/06/24 00:24:44;;;;;;;5.15;3.00;;;21.30;93.20;;;;;;4982464;28;20205;-73
2022/06/24 00:27:22;;;;;;;4.30;3.15;;;21.20;93.00;;;;;;5001131;28;20037;-73
2022/06/24 00:29:54;;;;;;;3.10;2.80;;;21.20;92.40;;;;;;5001532;28;20073;-73
2022/06/24 00:32:33;;;;;;;4.47;3.13;;;21.10;92.50;;;;;;4999333;28;20056;-72
2022/06/24 00:35:09;;;;;;;4.57;3.22;;;21.00;93.10;;;;;;4984806;28;20053;-72
2022/06/24 00:37:36;;;;;;;4.25;3.33;;;20.90;93.30;;;;;;4999717;28;20038;-72
2022/06/24 00:40:24;;;;;;;3.95;3.55;;;20.80;94.20;;;;;;4998703;28;20125;-72
2022/06/24 00:42:50;;;;;;;6.32;3.17;;;20.70;95.30;;;;;;4999214;28;20591;-72
2022/06/24 00:45:54;;;;;;;5.60;3.80;;;20.60;95.40;;;;;;4981202;28;20054;-72
2022/06/24 00:48:27;;;;;;;4.47;3.15;;;20.60;95.90;;;;;;4982219;28;20050;-72
2022/06/24 00:50:53;;;;;;;3.80;3.28;;;20.60;95.70;;;;;;4999846;28;20065;-72
2022/06/24 00:53:19;;;;;;;5.75;3.45;;;20.50;95.90;;;;;;4982346;28;20489;-72
2022/06/24 00:55:46;;;;;;;4.93;3.45;;;20.50;96.30;;;;;;4981059;28;20073;-72
2022/06/24 00:58:22;;;;;;;5.85;3.80;;;20.50;96.60;;;;;;4980116;28;20088;-72
2022/06/24 01:00:49;;;;;;;5.90;3.15;;;20.40;97.30;;;;;;4982453;28;20050;-72
2022/06/24 01:03:15;;;;;;;4.15;3.20;;;20.40;97.70;;;;;;4998182;28;20057;-72
2022/06/24 01:05:42;;;;;;;4.93;3.58;;;20.40;98.20;;;;;;4983189;28;20750;-72
2022/06/24 01:08:13;;;;;;;5.13;3.17;;;20.30;98.80;;;;;;4980101;28;20137;-72
2022/06/24 01:10:40;;;;;;;4.93;3.42;;;20.20;99.50;;;;;;4993880;28;20035;-72
2022/06/24 01:13:10;;;;;;;5.70;3.70;;;20.10;99.90;;;;;;4998847;28;20038;-72
2022/06/24 01:15:37;;;;;;;;;;;19.90;99.90;;;;;;4983785;28;20393;-72
2022/06/24 01:18:03;;;;;;;5.43;3.70;;;19.80;99.90;;;;;;4981566;28;19957;-72
2022/06/24 01:20:29;;;;;;;4.57;3.25;;;19.70;99.90;;;;;;5000397;28;20038;-73
2022/06/24 01:22:54;;;;;;;4.60;3.30;;;19.80;99.90;;;;;;5013234;28;20053;-72
2022/06/24 01:25:20;;;;;;;4.00;3.47;;;19.70;99.90;;;;;;4977802;28;20156;-72
2022/06/24 01:27:46;;;;;;;4.50;3.22;;;19.70;99.90;;;;;;4951459;28;20038;-72
2022/06/24 01:30:12;;;;;;;4.25;3.30;;;19.70;99.90;;;;;;4976477;28;21383;-72
2022/06/24 01:32:37;;;;;;;5.65;3.30;;;19.60;99.90;;;;;;4974223;28;20061;-73
2022/06/24 01:35:04;;;;;;;5.13;3.75;;;19.60;99.90;;;;;;4952813;28;20042;-73
2022/06/24 01:37:30;;;;;;;4.40;3.67;;;19.60;99.90;;;;;;4983817;28;20046;-73
2022/06/24 01:39:56;;;;;;;3.92;3.50;;;19.60;99.90;;;;;;4977175;28;21380;-73
2022/06/24 01:42:22;;;;;;;4.40;4.00;;;19.60;99.90;;;;;;4980353;28;20112;-72
2022/06/24 01:44:50;;;;;;;4.30;3.83;;;19.50;99.90;;;;;;4950868;28;20116;-73
2022/06/24 01:47:16;;;;;;;5.97;4.28;;;19.40;99.90;;;;;;4974410;28;20034;-73
2022/06/24 01:49:42;;;;;;;4.95;3.70;;;19.30;99.90;;;;;;4991358;28;21263;-72
2022/06/24 01:52:07;;;;;;;5.47;3.45;;;19.20;99.90;;;;;;4992317;28;20350;-73
2022/06/24 01:54:33;;;;;;;5.03;4.20;;;19.00;99.90;;;;;;4974863;28;20057;-72
2022/06/24 01:57:00;;;;;;;6.63;3.95;;;18.90;99.90;;;;;;4979727;28;20046;-72
2022/06/24 01:59:25;;;;;;;5.88;3.97;;;18.90;99.90;;;;;;4970010;28;20729;-73
2022/06/24 02:01:51;;;;;;;4.10;3.25;;;18.90;99.90;;;;;;5010905;28;20049;-73
2022/06/24 02:04:17;;;;;;;5.50;3.58;;;19.00;99.90;;;;;;4980559;28;20056;-73
2022/06/24 02:06:46;;;;;;;7.13;3.88;;;18.90;99.90;;;;;;4974086;28;20074;-73
2022/06/24 02:09:16;;;;;;;4.20;3.80;;;18.90;99.90;;;;;;4995540;28;20136;-73
2022/06/24 02:14:27;;;;;;;4.68;3.90;;;18.90;99.90;;;;;;4984997;28;20042;-73
2022/06/24 02:16:53;;;;;;;3.95;3.58;;;18.90;99.90;;;;;;4980615;28;20136;-73
2022/06/24 02:19:21;;;;;;;5.53;4.03;;;18.90;99.90;;;;;;4993319;28;20081;-73
2022/06/24 02:21:49;;;;;;;5.43;3.67;;;18.90;99.90;;;;;;4972685;28;20719;-73
2022/06/24 02:24:15;;;;;;;5.68;3.85;;;18.90;99.90;;;;;;4970057;28;20048;-72
2022/06/24 02:26:43;;;;;;;4.47;3.78;;;19.00;99.90;;;;;;4980576;28;20050;-73
2022/06/24 02:29:10;;;;;;;4.40;3.55;;;19.00;99.90;;;;;;4980535;28;21139;-73
2022/06/24 02:31:37;;;;;;;4.40;4.00;;;19.00;99.90;;;;;;4969912;28;20070;-72
2022/06/24 02:34:03;;;;;;;5.20;3.90;;;19.10;99.90;;;;;;4972454;28;20517;-73
2022/06/24 02:36:29;;;;;;;5.45;4.82;;;19.10;99.90;;;;;;4979422;28;20049;-73
2022/06/24 02:38:54;;;;;;;4.03;3.60;;;19.20;99.90;;;;;;4981197;28;20085;-73
2022/06/24 02:41:20;;;;;;;4.75;3.33;;;19.20;99.90;;;;;;4968207;28;20126;-73
2022/06/24 02:43:46;;;;;;;5.07;3.90;;;19.20;99.90;;;;;;5001066;28;20045;-73
2022/06/24 02:46:16;;;;;;;5.13;3.63;;;19.20;99.90;;;;;;4984472;28;20771;-72
2022/06/24 02:48:42;;;;;;;;;;;19.20;99.90;;;;;;5002416;28;20068;-72
2022/06/24 02:51:10;;;;;;;4.93;3.95;;;19.10;99.90;;;;;;4984369;28;20323;-72
2022/06/24 02:53:36;;;;;;;5.07;4.25;;;19.00;99.90;;;;;;4996215;28;20050;-73
2022/06/24 02:56:05;;;;;;;4.63;4.00;;;18.90;99.90;;;;;;4982234;28;20067;-73
2022/06/24 02:58:31;;;;;;;5.00;3.72;;;19.00;99.90;;;;;;4999488;28;20096;-73
2022/06/24 03:00:58;;;;;;;5.88;4.32;;;19.00;99.90;;;;;;5001157;28;20139;-73
2022/06/24 03:03:24;;;;;;;5.40;3.97;;;19.00;99.90;;;;;;5001227;28;20129;-72
2022/06/24 03:05:50;;;;;;;4.95;3.83;;;19.10;99.90;;;;;;4983512;28;20117;-73
2022/06/24 03:08:18;;;;;;;6.43;4.07;;;19.10;99.90;;;;;;4983599;28;20415;-74
2022/06/24 03:10:44;;;;;;;5.20;4.60;;;19.10;99.90;;;;;;4985010;28;20128;-73
2022/06/24 03:13:11;;;;;;;4.68;4.05;;;19.10;99.90;;;;;;5000967;28;20042;-74
2022/06/24 03:15:37;;;;;;;5.47;3.85;;;19.10;99.90;;;;;;5001768;28;20104;-73
2022/06/24 03:18:03;;;;;;;5.35;4.10;;;19.10;99.90;;;;;;5000413;28;20107;-73
2022/06/24 03:20:29;;;;;;;5.53;3.50;;;19.10;99.90;;;;;;4983860;28;20046;-73
2022/06/24 03:22:55;;;;;;;5.55;3.88;;;19.20;99.90;;;;;;4985073;28;20382;-73
2022/06/24 03:25:21;;;;;;;6.90;3.85;;;19.20;99.90;;;;;;4981919;28;20137;-73
2022/06/24 03:27:47;;;;;;;4.85;4.00;;;19.20;99.90;;;;;;5000751;28;20452;-73
2022/06/24 03:30:14;;;;;;;7.15;4.03;;;19.20;99.90;;;;;;4983249;28;20103;-71
2022/06/24 03:32:40;;;;;;;8.73;3.80;;;19.20;99.90;;;;;;4984683;28;20468;-72
2022/06/24 03:35:06;;;;;;;4.25;3.65;;;19.20;99.90;;;;;;5000300;28;20608;-73
2022/06/24 03:37:33;;;;;;;3.97;3.58;;;19.10;99.90;;;;;;4999904;28;20045;-72
2022/06/24 03:39:59;;;;;;;6.60;4.13;;;19.20;99.90;;;;;;4983872;28;20053;-73
2022/06/24 03:42:25;;;;;;;5.03;3.42;;;19.20;99.90;;;;;;4968847;28;20064;-73
2022/06/24 03:44:52;;;;;;;4.43;4.00;;;19.20;99.90;;;;;;4984140;28;20576;-73
2022/06/24 03:47:18;;;;;;;6.45;3.92;;;19.20;99.90;;;;;;5000768;28;20489;-73
2022/06/24 03:49:44;;;;;;;7.18;3.97;;;19.20;99.90;;;;;;5000938;28;20042;-72
2022/06/24 03:52:10;;;;;;;7.03;4.28;;;19.30;99.90;;;;;;5001001;28;20041;-73
2022/06/24 03:54:36;;;;;;;4.72;4.22;;;19.20;99.90;;;;;;4983314;28;20054;-73
2022/06/24 03:57:02;;;;;;;5.65;4.78;;;19.20;99.90;;;;;;4981568;28;20137;-73
2022/06/24 03:59:28;;;;;;;5.43;4.18;;;19.20;99.90;;;;;;4983061;28;20603;-73
2022/06/24 04:01:54;;;;;;;6.00;4.20;;;19.20;99.90;;;;;;4998117;28;20117;-73
2022/06/24 04:04:20;;;;;;;6.30;3.92;;;19.20;99.90;;;;;;4993921;28;20050;-73
2022/06/24 04:06:46;;;;;;;8.20;4.35;;;19.20;99.90;;;;;;4999836;28;20132;-72
2022/06/24 04:09:12;;;;;;;4.85;4.45;;;19.20;99.90;;;;;;4981856;28;20042;-73
2022/06/24 04:11:38;;;;;;;8.18;4.05;;;19.20;99.90;;;;;;4984155;28;20042;-73
2022/06/24 04:14:04;;;;;;;6.40;4.38;;;19.20;99.90;;;;;;5000410;28;20045;-73
2022/06/24 04:16:30;;;;;;;6.43;4.22;;;19.20;99.90;;;;;;4979424;28;20038;-73
2022/06/24 04:18:55;;;;;;;5.90;4.38;;;19.20;99.90;;;;;;4981308;28;20057;-73
2022/06/24 04:21:21;;;;;;;9.60;4.18;;;19.20;99.90;;;;;;4983458;28;20416;-73
2022/06/24 04:23:49;;;;;;;6.78;4.43;;;19.20;99.90;;;;;;5002311;28;20671;-73
2022/06/24 04:26:17;;;;;;;4.53;4.03;;;19.20;99.90;;;;;;4982028;28;20038;-73
2022/06/24 04:28:44;;;;;;;4.40;3.80;;;19.20;99.90;;;;;;4985290;28;20509;-73
2022/06/24 04:31:09;;;;;;;6.35;4.28;;;19.30;99.90;;;;;;4964090;28;20038;-73
2022/06/24 04:33:35;;;;;;;4.78;4.18;;;19.30;99.90;;;;;;4983628;28;20038;-73
2022/06/24 04:36:01;;;;;;;5.38;4.30;;;19.40;99.90;;;;;;4983031;28;20081;-72
2022/06/24 04:38:27;;;;;;;8.45;4.30;;;19.40;99.90;;;;;;4983355;28;20046;-72
2022/06/24 04:40:53;;;;;;;6.00;5.18;;;19.50;99.90;;;;;;4998781;28;20062;-72
2022/06/24 04:43:18;;;;;;;8.00;7.30;;;19.60;99.90;;;;;;4979637;28;20081;-71
2022/06/24 04:45:44;;;;;;;9.43;8.38;;;19.70;99.90;;;;;;4999578;28;20042;-72
2022/06/24 04:48:10;;;;;;;11.35;10.30;;;19.70;99.90;;;;;;4981652;28;20629;-71
2022/06/24 04:50:36;;;;;;;14.57;12.05;;;19.80;99.90;;;;;;4982864;28;20150;-71
2022/06/24 04:53:03;;;;;;;12.55;11.18;;;19.90;99.90;;;;;;4982590;28;20046;-71
2022/06/24 04:55:29;;;;;;;10.90;9.80;;;20.00;99.90;;;;;;4980613;28;20053;-71
2022/06/24 04:57:55;;;;;;;11.88;10.05;;;20.20;99.90;;;;;;4997662;28;20042;-71
2022/06/24 05:00:20;;;;;;;9.32;7.28;;;20.20;99.90;;;;;;4981817;28;21596;-72
2022/06/24 05:02:46;;;;;;;9.30;7.13;;;20.30;99.90;;;;;;4982082;28;20042;-71
2022/06/24 05:05:12;;;;;;;11.50;7.15;;;20.40;99.90;;;;;;4983594;28;20045;-71
2022/06/24 05:07:38;;;;;;;9.20;6.70;;;20.50;99.90;;;;;;4997250;28;20045;-71
2022/06/24 05:10:05;;;;;;;8.75;6.63;;;20.60;99.90;;;;;;4999291;28;20053;-71
2022/06/24 05:12:31;;;;;;;8.32;6.60;;;20.60;99.90;;;;;;4998444;28;20045;-71
2022/06/24 05:14:57;;;;;;;7.95;6.78;;;20.70;99.90;;;;;;4983321;28;20044;-71
2022/06/24 05:17:24;;;;;;;9.88;6.53;;;20.70;99.90;;;;;;4981863;28;20049;-71
2022/06/24 05:19:51;;;;;;;7.82;7.03;;;20.80;99.90;;;;;;4999012;28;20042;-71
2022/06/24 05:22:17;;;;;;;10.63;6.40;;;20.90;99.90;;;;;;5000412;28;20053;-71
2022/06/24 05:24:42;;;;;;;8.32;6.55;;;20.90;99.90;;;;;;4982575;28;20041;-71
2022/06/24 05:27:08;;;;;;;10.77;6.88;;;20.90;99.90;;;;;;4982224;28;20048;-71
2022/06/24 05:29:34;;;;;;;7.63;6.47;;;21.00;99.90;;;;;;4981628;28;20460;-71
2022/06/24 05:32:00;;;;;;;10.30;8.20;;;20.90;99.90;;;;;;4999027;28;20045;-71
2022/06/24 05:34:26;;;;;;;7.80;6.50;;;20.90;99.90;;;;;;4999437;28;20054;-72
2022/06/24 05:36:52;;;;;;;8.65;6.20;;;20.90;99.90;;;;;;4966982;28;20049;-72
2022/06/24 05:39:23;;;;;;;10.38;7.60;;;20.90;99.90;;;;;;4997780;28;20124;-72
2022/06/24 05:41:49;;;;;;;9.65;6.40;;;20.90;99.90;;;;;;4966426;28;20420;-71
2022/06/24 05:44:15;;;;;;;7.60;6.75;;;20.90;99.90;;;;;;4980362;28;20072;-71
2022/06/24 05:46:41;;;;;;;8.10;6.93;;;20.80;99.90;;;;;;4998071;28;20050;-72
2022/06/24 05:49:06;;;;;;;8.25;6.43;;;20.80;99.90;;;;;;4964944;28;20737;-72
2022/06/24 05:51:36;;;;;;;8.77;6.50;;;20.70;99.90;;;;;;4996176;28;20057;-71
2022/06/24 05:56:47;;;;;;;7.97;6.05;;;20.60;99.90;;;;;;4997419;28;20049;-71
2022/06/24 05:59:14;;;;;;;11.35;6.93;;;20.60;99.90;;;;;;4981309;28;20038;-71
2022/06/24 06:01:39;;;;;;;8.90;6.28;;;20.60;99.90;;;;;;4980821;28;20050;-71
2022/06/24 06:04:05;;;;;;;8.18;6.28;;;20.60;99.90;;;;;;4997801;28;20037;-71
2022/06/24 06:06:31;;;;;;;8.15;6.68;;;20.60;99.90;;;;;;4981369;28;20042;-71
2022/06/24 06:08:59;;;;;;;7.82;5.90;;;20.60;99.90;;;;;;4998061;28;20145;-71
2022/06/24 06:11:26;;;;;;;7.72;6.93;;;20.50;99.90;;;;;;4998500;28;20080;-71
2022/06/24 06:13:57;;;;;;;8.68;7.72;;;20.50;99.90;;;;;;4981083;28;20054;-71
2022/06/24 06:16:23;;;;;;;7.35;6.53;;;20.60;99.90;;;;;;4965603;28;20063;-71
2022/06/24 06:18:50;;;;;;;6.95;6.32;;;20.60;99.90;;;;;;4980210;28;20505;-71
2022/06/24 06:21:16;;;;;;;8.05;5.40;;;20.60;99.90;;;;;;4981558;28;20100;-71
2022/06/24 06:23:42;;;;;;;5.97;4.88;;;20.60;99.90;;;;;;4999234;28;20060;-71
2022/06/24 06:26:09;;;;;;;6.28;4.90;;;20.60;99.90;;;;;;4995776;28;20042;-71
2022/06/24 06:28:36;;;;;;;10.68;5.95;;;20.70;99.90;;;;;;4995134;28;20046;-71
2022/06/24 06:31:02;;;;;;;7.88;5.03;;;20.70;99.90;;;;;;4992059;28;20056;-71
2022/06/24 06:33:28;;;;;;;6.35;4.95;;;20.70;99.90;;;;;;4976335;28;20081;-72
2022/06/24 06:36:11;;;;;;;5.18;4.47;;;20.70;99.90;;;;;;4963740;28;20082;-71
2022/06/24 06:38:39;;;;;;;6.60;4.45;;;20.70;99.90;;;;;;4996667;28;20436;-71
2022/06/24 06:41:05;;;;;;;6.18;4.88;;;20.70;99.90;;;;;;4965398;28;20532;-71
2022/06/24 06:43:31;;;;;;;6.70;4.72;;;20.70;99.90;;;;;;4983459;28;20353;-71
2022/06/24 06:45:57;;;;;;;5.88;4.30;;;20.70;99.90;;;;;;5000572;28;20069;-72
2022/06/24 06:48:25;;;;;;;5.22;4.43;;;20.70;99.90;;;;;;5002184;28;20057;-72
2022/06/24 06:50:58;;;;;;;5.22;4.13;;;20.70;99.90;;;;;;4983694;28;20061;-71
2022/06/24 06:53:26;;;;;;;5.68;4.10;;;20.70;99.90;;;;;;4983658;28;20243;-71
2022/06/24 06:55:52;;;;;;;6.50;4.50;;;20.60;99.90;;;;;;4997757;28;20041;-71
2022/06/24 06:58:19;;;;;;;5.15;4.65;;;20.60;99.90;;;;;;4998795;28;20396;-71
2022/06/24 07:00:45;;;;;;;6.95;5.38;;;20.60;99.90;;;;;;4999438;28;20081;-71
2022/06/24 07:03:11;;;;;;;5.85;4.95;;;20.60;99.90;;;;;;4978518;28;20124;-71
2022/06/24 07:05:37;;;;;;;7.60;6.30;;;20.50;99.90;;;;;;4963812;28;20045;-71
2022/06/24 07:08:03;;;;;;;7.40;5.68;;;20.50;99.90;;;;;;4997928;28;21647;-71
2022/06/24 07:10:29;;;;;;;6.50;4.95;;;20.50;99.90;;;;;;4981499;28;20050;-71
2022/06/24 07:12:54;;;;;;;8.50;6.28;;;20.50;99.90;;;;;;4997053;28;20075;-71
2022/06/24 07:15:20;;;;;;;6.28;5.25;;;20.50;99.90;;;;;;4983424;28;20042;-72
2022/06/24 07:17:46;;;;;;;6.65;5.53;;;20.50;99.90;;;;;;4984283;28;20041;-72
2022/06/24 07:20:12;;;;;;;6.30;4.65;;;20.50;99.90;;;;;;4997794;28;20060;-72
2022/06/24 07:22:39;;;;;;;7.07;4.82;;;20.50;99.90;;;;;;4983643;28;20057;-73
2022/06/24 07:25:06;;;;;;;6.53;5.30;;;20.50;99.90;;;;;;4964220;28;20062;-73
2022/06/24 07:27:31;;;;;;;7.50;6.78;;;20.50;99.90;;;;;;4965979;28;20034;-74
2022/06/24 07:29:57;;;;;;;11.90;6.68;;;20.50;99.90;;;;;;4984202;28;20068;-76
2022/06/24 07:32:23;;;;;;;7.90;5.45;;;20.40;99.90;;;;;;5000335;28;20208;-76
2022/06/24 07:34:49;;;;;;;8.88;5.13;;;20.50;99.90;;;;;;4964624;28;20038;-76
2022/06/24 07:37:15;;;;;;;6.43;5.35;;;20.50;99.90;;;;;;5000226;28;20095;-75
2022/06/24 07:39:41;;;;;;;7.18;5.93;;;20.40;99.90;;;;;;4984049;28;20448;-75
2022/06/24 07:42:06;;;;;;;7.53;6.68;;;20.40;99.90;;;;;;4967068;28;20053;-74
2022/06/24 07:44:32;;;;;;;8.55;6.85;;;20.40;99.90;;;;;;4965566;28;20053;-74
2022/06/24 07:46:58;;;;;;;7.65;6.07;;;20.40;99.90;;;;;;5000053;28;20077;-74
2022/06/24 07:49:24;;;;;;;9.00;6.68;;;20.40;99.90;;;;;;4964147;28;20038;-74
2022/06/24 07:51:50;;;;;;;8.50;6.03;;;20.40;99.90;;;;;;4998579;28;20040;-73
2022/06/24 07:54:16;;;;;;;7.63;5.70;;;20.40;99.90;;;;;;4998680;28;20061;-74
2022/06/24 07:56:56;;;;;;;6.78;5.53;;;20.40;99.90;;;;;;4966321;28;20052;-74
2022/06/24 07:59:30;;;;;;;10.50;7.80;;;20.40;99.90;;;;;;4981811;28;20674;-72
2022/06/24 08:01:58;;;;;;;9.05;7.97;;;20.40;99.90;;;;;;5000033;28;20115;-72
2022/06/24 08:04:25;;;;;;;12.75;10.00;;;20.40;99.90;;;;;;4996000;28;20042;-72
2022/06/24 08:06:52;;;;;;;11.95;10.43;;;20.40;99.90;;;;;;4978348;28;20400;-72
2022/06/24 08:09:23;;;;;;;11.77;10.57;;;20.40;99.90;;;;;;4967073;28;20127;-71
2022/06/24 08:11:49;;;;;;;8.70;6.85;;;20.40;99.90;;;;;;4979476;28;20418;-72
2022/06/24 08:14:15;;;;;;;8.30;7.40;;;20.40;99.90;;;;;;4983266;28;20084;-73
2022/06/24 08:16:42;;;;;;;8.30;7.50;;;20.40;99.90;;;;;;5000179;28;20433;-73
2022/06/24 08:19:09;;;;;;;9.38;8.13;;;20.40;99.90;;;;;;4996823;28;20045;-73
2022/06/24 08:21:35;;;;;;;10.60;9.07;;;20.40;99.90;;;;;;4982148;28;20127;-72
2022/06/24 08:24:02;;;;;;;11.52;9.75;;;20.30;99.90;;;;;;4966131;28;20569;-72
2022/06/24 08:26:30;;;;;;;10.95;9.85;;;20.40;99.90;;;;;;4995924;28;20046;-72
2022/06/24 08:28:57;;;;;;;9.07;8.18;;;20.40;99.90;;;;;;4995680;28;20057;-72
2022/06/24 08:31:23;;;;;;;10.48;8.73;;;20.40;99.90;;;;;;4997226;28;20042;-72
2022/06/24 08:33:49;;;;;;;11.20;8.18;;;20.40;99.90;;;;;;4979868;28;20399;-72
2022/06/24 08:36:15;;;;;;;10.25;9.10;;;20.40;99.90;;;;;;4983598;28;20049;-72
2022/06/24 08:38:40;;;;;;;9.93;8.93;;;20.40;99.90;;;;;;4999322;28;20121;-71
2022/06/24 08:41:06;;;;;;;10.15;8.68;;;20.40;99.90;;;;;;4980685;28;20346;-71
2022/06/24 08:43:34;;;;;;;10.95;9.80;;;20.40;99.90;;;;;;4992067;28;20057;-71
2022/06/24 08:46:01;;;;;;;10.05;9.05;;;20.40;99.90;;;;;;4997722;28;20046;-71
2022/06/24 08:48:31;;;;;;;12.45;10.20;;;20.50;99.90;;;;;;4983770;28;20073;-71
2022/06/24 08:50:57;;;;;;;9.95;8.95;;;20.50;99.90;;;;;;5001822;28;20065;-71
2022/06/24 08:53:26;;;;;;;10.07;8.40;;;20.50;99.90;;;;;;4983359;28;20516;-71
2022/06/24 08:55:52;;;;;;;11.13;10.05;;;20.50;99.90;;;;;;4996646;28;20053;-72
2022/06/24 08:58:19;;;;;;;9.85;8.95;;;20.60;99.90;;;;;;4978048;28;20041;-72
2022/06/24 09:00:45;;;;;;;12.60;11.40;;;20.50;99.90;;;;;;4963202;28;20061;-71
2022/06/24 09:03:12;;;;;;;10.80;9.65;;;20.50;99.90;;;;;;4966451;28;20045;-71
2022/06/24 09:05:38;;;;;;;11.05;10.05;;;20.50;99.90;;;;;;4968288;28;20241;-72
2022/06/24 09:08:05;;;;;;;9.93;9.02;;;20.50;99.90;;;;;;4940376;28;20515;-71
2022/06/24 09:10:32;;;;;;;10.20;9.15;;;20.50;99.90;;;;;;4956549;28;20065;-71
2022/06/24 09:12:58;;;;;;;9.95;8.50;;;20.50;99.90;;;;;;4968180;28;20093;-71
2022/06/24 09:15:24;;;;;;;9.88;8.88;;;20.50;99.90;;;;;;4971021;28;20042;-71
2022/06/24 09:17:50;;;;;;;8.38;7.68;;;20.50;99.90;;;;;;4972004;28;20050;-71
2022/06/24 09:20:23;;;;;;;11.40;10.27;;;20.50;99.90;;;;;;4952070;28;20390;-71
2022/06/24 09:22:50;;;;;;;10.75;9.65;;;20.50;99.90;;;;;;4940720;28;20050;-71
2022/06/24 09:25:17;;;;;;;12.80;11.70;;;20.50;99.90;;;;;;4971398;28;20168;-70
2022/06/24 09:27:46;;;;;;;10.93;9.85;;;20.50;99.90;;;;;;4967555;28;20449;-71
2022/06/24 09:30:18;;;;;;;10.13;9.20;;;20.50;99.90;;;;;;4971464;28;20996;-70
2022/06/24 09:32:55;;;;;;;10.80;9.75;;;20.40;99.90;;;;;;4957151;28;20096;-70
2022/06/24 09:35:22;;;;;;;13.63;10.75;;;20.40;99.90;;;;;;4955665;28;20137;-70
2022/06/24 09:37:50;;;;;;;10.23;9.23;;;20.30;99.90;;;;;;4973751;28;20054;-70
2022/06/24 09:40:30;;;;;;;11.18;8.10;;;20.20;99.90;;;;;;4957627;28;20084;-70
2022/06/24 09:43:00;;;;;;;12.43;8.60;;;20.30;99.90;;;;;;4973219;28;20133;-71
2022/06/24 09:45:42;;;;;;;10.88;6.43;;;20.20;99.90;;;;;;4955223;28;20116;-71
2022/06/24 09:48:09;;;;;;;11.50;7.32;;;20.10;99.90;;;;;;4975269;28;20054;-71
2022/06/24 09:50:35;;;;;;;9.10;8.30;;;20.00;99.90;;;;;;4969587;28;20057;-71
2022/06/24 09:53:02;;;;;;;10.38;7.82;;;19.90;99.90;;;;;;4971128;28;20297;-70
2022/06/24 09:55:29;;;;;;;9.85;7.45;;;19.80;99.90;;;;;;4971673;28;20050;-71
2022/06/24 09:57:58;;;;;;;8.05;7.15;;;19.70;99.90;;;;;;4954767;28;20090;-70
2022/06/24 10:00:43;;;;;;;9.68;8.68;;;19.70;99.90;;;;;;4954476;28;20137;-70
2022/06/24 10:03:12;;;;;;;9.45;7.65;;;19.50;99.90;;;;;;4959488;28;20607;-71
2022/06/24 10:05:44;;;;;;;8.05;6.88;;;19.50;99.90;;;;;;4956973;28;20050;-71
2022/06/24 10:08:12;;;;;;;8.48;7.13;;;19.50;99.90;;;;;;4973464;28;20058;-71
2022/06/24 10:10:46;;;;;;;11.68;8.18;;;19.40;99.90;;;;;;4970980;28;20061;-70
2022/06/24 10:13:26;;;;;;;7.68;5.63;;;19.40;99.90;;;;;;4970107;28;20081;-70
2022/06/24 10:15:53;;;;;;;;;;;19.40;99.90;;;;;;4967776;28;20141;-71
2022/06/24 10:18:20;;;;;;;7.40;5.45;;;19.30;99.90;;;;;;4952519;28;19930;-71
2022/06/24 10:20:47;;;;;;;6.10;4.40;;;19.20;99.90;;;;;;4959082;28;20096;-70
2022/06/24 10:23:35;;;;;;;7.43;4.60;;;19.10;99.90;;;;;;4970270;28;20109;-70
2022/06/24 10:26:12;;;;;;;8.90;5.75;;;19.10;99.90;;;;;;4978692;28;20054;-70
2022/06/24 10:29:03;;;;;;;8.13;5.72;;;19.00;99.90;;;;;;4973572;28;20112;-70
2022/06/24 10:31:59;;;;;;;16.77;8.00;;;19.00;99.90;;;;;;4981260;28;20042;-72
2022/06/24 10:34:30;;;;;;;7.43;4.03;;;18.90;99.90;;;;;;4990142;28;20070;-69
2022/06/24 10:37:22;;;;;;;5.70;4.00;;;18.90;99.90;;;;;;4977057;28;20056;-70
2022/06/24 10:39:54;;;;;;;5.47;3.90;;;18.80;99.90;;;;;;4979020;28;20046;-70
2022/06/24 10:42:21;;;;;;;5.57;4.22;;;18.80;99.90;;;;;;4978012;28;20046;-70
2022/06/24 10:44:56;;;;;;;5.78;4.82;;;18.80;99.90;;;;;;4980314;28;20082;-70
2022/06/24 10:47:40;;;;;;;8.57;5.47;;;18.80;99.90;;;;;;4974946;28;20803;-70
2022/06/24 10:50:09;;;;;;;5.15;4.30;;;18.80;99.90;;;;;;4979407;28;20053;-70
2022/06/24 10:52:38;;;;;;;7.70;5.18;;;18.70;99.90;;;;;;4977420;28;20050;-70
2022/06/24 10:55:28;;;;;;;4.78;4.18;;;18.80;99.90;;;;;;4975249;28;20055;-70
2022/06/24 10:58:03;;;;;;;5.50;3.70;;;18.80;99.90;;;;;;4979640;28;20132;-69
2022/06/24 11:00:51;;;;;;;6.07;4.03;;;18.80;99.90;;;;;;4980249;28;20298;-69
2022/06/24 11:03:33;;;;;;;7.22;4.43;;;18.80;99.90;;;;;;4974228;28;20103;-70
2022/06/24 11:05:59;;;;;;;8.75;6.00;;;18.80;99.90;;;;;;4962863;28;20057;-69
2022/06/24 11:08:26;;;;;;;4.82;3.88;;;18.80;99.90;;;;;;4975343;28;20120;-70
2022/06/24 11:10:53;;;;;;;5.07;3.83;;;18.90;99.90;;;;;;4939614;28;20046;-68
2022/06/24 11:13:24;;;;;;;4.85;4.05;;;18.90;99.90;;;;;;4961575;28;20046;-70
2022/06/24 11:15:54;;;;;;;5.68;4.22;;;18.90;99.90;;;;;;4978296;28;20046;-70
2022/06/24 11:18:27;;;;;;;6.78;5.60;;;19.00;99.90;;;;;;4979879;28;20414;-71
2022/06/24 11:20:54;;;;;;;6.35;4.43;;;19.10;99.90;;;;;;4975934;28;20057;-70
2022/06/24 11:23:23;;;;;;;6.22;4.47;;;19.20;99.90;;;;;;4976137;28;20050;-71
2022/06/24 11:26:13;;;;;;;6.00;4.85;;;19.20;99.90;;;;;;4976333;28;20046;-71
2022/06/24 11:28:40;;;;;;;6.80;4.38;;;19.30;99.90;;;;;;4978114;28;20058;-71
2022/06/24 11:31:21;;;;;;;5.95;4.43;;;19.30;99.90;;;;;;4978272;28;20418;-71
2022/06/24 11:34:06;;;;;;;6.13;4.68;;;19.30;99.90;;;;;;4961341;28;20065;-72
2022/06/24 11:36:33;;;;;;;4.07;3.67;;;19.30;99.90;;;;;;4960252;28;20181;-72
2022/06/24 11:39:03;;;;;;;3.65;3.03;;;19.30;99.90;;;;;;4976389;28;20053;-71
2022/06/24 11:41:31;;;;;;;7.40;4.93;;;19.40;99.90;;;;;;4987274;28;20065;-71
2022/06/24 11:43:57;;;;;;;6.13;4.07;;;19.50;99.90;;;;;;4954762;28;20042;-72
2022/06/24 11:46:23;;;;;;;4.10;3.67;;;19.60;99.90;;;;;;4978194;28;20096;-71
2022/06/24 11:49:02;;;;;;;5.80;3.60;;;19.70;99.90;;;;;;4960607;28;20077;-71
2022/06/24 11:51:28;;;;;;;6.38;3.85;;;19.90;99.90;;;;;;4961333;28;20490;-71
2022/06/24 11:53:57;;;;;;;4.47;3.50;;;20.10;99.90;;;;;;4977146;28;20694;-71
2022/06/24 11:56:28;;;;;;;4.15;3.67;;;20.20;99.90;;;;;;4961741;28;20053;-71
2022/06/24 11:58:58;;;;;;;4.32;3.92;;;20.30;99.90;;;;;;4959592;28;20610;-71
2022/06/24 12:01:26;;;;;;;7.50;4.25;;;20.40;99.90;;;;;;4976301;28;20042;-71
2022/06/24 12:03:54;;;;;;;6.10;4.70;;;20.50;99.90;;;;;;4975418;28;20061;-72
2022/06/24 12:06:20;;;;;;;6.90;5.55;;;20.60;99.90;;;;;;4974543;28;20053;-71
2022/06/24 12:08:47;;;;;;;7.05;6.35;;;20.70;99.90;;;;;;4991202;28;20046;-72
2022/06/24 12:11:15;;;;;;;8.20;5.63;;;20.80;99.90;;;;;;4943898;28;20577;-72
2022/06/24 12:13:41;;;;;;;9.00;7.78;;;20.90;99.90;;;;;;4957766;28;20062;-72
2022/06/24 12:16:09;;;;;;;9.15;8.35;;;21.10;99.90;;;;;;4976090;28;20050;-72
2022/06/24 12:18:35;;;;;;;9.23;8.32;;;21.20;99.90;;;;;;4960189;28;20057;-71
2022/06/24 12:21:07;;;;;;;9.23;8.32;;;21.40;99.90;;;;;;4978244;28;20497;-72
2022/06/24 12:23:39;;;;;;;9.40;8.50;;;21.50;99.90;;;;;;4960277;28;21124;-71
2022/06/24 12:26:11;;;;;;;9.48;7.95;;;21.60;99.90;;;;;;4968717;28;20373;-71
2022/06/24 12:28:37;;;;;;;9.98;8.95;;;21.60;99.90;;;;;;4975233;28;20038;-71
2022/06/24 12:31:05;;;;;;;11.63;10.63;;;21.70;99.90;;;;;;4972767;28;20486;-71
2022/06/24 12:33:44;;;;;;;11.95;10.82;;;21.70;99.90;;;;;;4976355;28;20529;-71
2022/06/24 12:36:16;;;;;;;14.97;13.67;;;21.80;99.90;;;;;;4969421;28;20345;-71
2022/06/24 12:39:00;;;;;;;16.50;14.90;;;21.80;99.90;;;;;;4974677;28;20046;-71
2022/06/24 12:41:28;;;;;;;12.77;11.70;;;21.90;99.90;;;;;;4972032;28;20128;-71
2022/06/24 12:43:54;;;;;;;14.93;13.63;;;22.00;99.90;;;;;;4969924;28;20079;-72
2022/06/24 12:46:21;;;;;;;11.52;10.43;;;22.10;99.90;;;;;;4976265;28;20054;-71
2022/06/24 12:51:31;;;;;;;13.10;11.70;;;22.20;99.90;;;;;;4974377;28;20054;-72
2022/06/24 12:53:58;;;;;;;13.43;12.23;;;22.30;99.90;;;;;;4957698;28;20220;-72
2022/06/24 12:56:24;;;;;;;15.38;13.88;;;22.40;99.90;;;;;;4979709;28;20054;-71
2022/06/24 12:58:52;;;;;;;11.82;10.63;;;22.40;99.90;;;;;;4961384;28;20068;-72
2022/06/24 13:01:18;;;;;;;14.15;12.85;;;22.50;99.90;;;;;;4977473;28;20077;-72